createdAt,value
2019-02-02T00:03:29.915Z,31.47
2019-02-02T00:08:20.824Z,26.70
2019-02-02T00:13:11.747Z,27.00
2019-02-02T00:18:02.650Z,27.40
2019-02-02T00:22:54.289Z,28.20
2019-02-02T00:27:45.186Z,29.27
2019-02-02T00:32:36.143Z,30.03
2019-02-02T00:37:27.050Z,28.63
2019-02-02T00:42:18.037Z,29.30
2019-02-02T00:47:08.965Z,29.80
2019-02-02T00:52:00.613Z,34.83
2019-02-02T00:56:52.365Z,29.87
2019-02-02T01:01:43.213Z,30.57
2019-02-02T01:06:34.117Z,27.50
2019-02-02T01:11:25.019Z,29.50
2019-02-02T01:16:15.986Z,28.10
2019-02-02T01:21:06.959Z,31.40
2019-02-02T01:25:57.865Z,28.70
2019-02-02T01:30:49.565Z,29.13
2019-02-02T01:35:40.483Z,30.43
2019-02-02T01:40:31.395Z,36.45
2019-02-02T01:45:22.297Z,30.10
2019-02-02T01:50:14.068Z,30.90
2019-02-02T01:55:05.081Z,32.53
2019-02-02T01:59:55.991Z,32.60
2019-02-02T02:04:46.915Z,32.47
2019-02-02T02:09:48.096Z,31.97
2019-02-02T02:14:39.040Z,32.80
2019-02-02T02:19:30.685Z,30.93
2019-02-02T02:24:22.346Z,32.00
2019-02-02T02:29:13.247Z,34.67
2019-02-02T02:34:04.153Z,32.40
2019-02-02T02:38:55.787Z,41.87
2019-02-02T02:43:47.447Z,35.33
2019-02-02T02:48:38.352Z,36.97
2019-02-02T02:53:29.996Z,35.07
2019-02-02T02:58:20.892Z,35.20
2019-02-02T03:03:12.554Z,33.53
2019-02-02T03:08:03.460Z,38.07
2019-02-02T03:12:54.363Z,36.70
2019-02-02T03:17:46.017Z,40.35
2019-02-02T03:22:36.935Z,39.77
2019-02-02T03:27:27.849Z,46.67
2019-02-02T03:32:19.529Z,40.97
2019-02-02T03:37:10.402Z,40.53
2019-02-02T03:42:02.056Z,39.07
2019-02-02T03:46:52.951Z,40.00
2019-02-02T03:51:44.595Z,40.07
2019-02-02T03:56:36.231Z,41.17
2019-02-02T04:01:30.016Z,42.90
2019-02-02T04:06:18.812Z,41.43
2019-02-02T04:11:09.721Z,53.63
2019-02-02T04:16:00.647Z,51.53
2019-02-02T04:20:51.544Z,43.80
2019-02-02T04:25:42.443Z,42.43
2019-02-02T04:30:34.087Z,41.87
2019-02-02T04:35:25.742Z,43.33
2019-02-02T04:40:16.640Z,43.90
2019-02-02T04:45:08.284Z,43.53
2019-02-02T04:49:59.933Z,44.17
2019-02-02T04:54:50.840Z,43.27
2019-02-02T04:59:41.743Z,55.25
2019-02-02T05:04:33.394Z,48.17
2019-02-02T05:09:25.048Z,48.20
2019-02-02T05:14:15.962Z,45.23
2019-02-02T05:19:06.870Z,45.43
2019-02-02T05:23:57.791Z,44.13
2019-02-02T05:28:48.693Z,44.47
2019-02-02T05:33:40.372Z,44.20
2019-02-02T05:38:31.283Z,47.37
2019-02-02T05:43:22.188Z,45.13
2019-02-02T05:48:13.092Z,56.90
2019-02-02T05:53:04.736Z,51.22
2019-02-02T05:57:55.648Z,46.87
2019-02-02T06:02:47.297Z,49.07
2019-02-02T06:07:38.200Z,46.87
2019-02-02T06:12:29.843Z,45.60
2019-02-02T06:17:20.744Z,45.30
2019-02-02T06:22:12.401Z,48.10
2019-02-02T06:27:03.304Z,47.70
2019-02-02T06:31:54.968Z,46.70
2019-02-02T06:36:45.870Z,54.90
2019-02-02T06:41:36.767Z,47.47
2019-02-02T06:46:28.416Z,57.45
2019-02-02T06:51:20.056Z,46.73
2019-02-02T06:56:11.700Z,46.30
2019-02-02T07:01:02.623Z,46.60
2019-02-02T07:05:53.519Z,47.33
2019-02-02T07:10:45.176Z,47.10
2019-02-02T07:15:36.087Z,45.10
2019-02-02T07:20:26.983Z,48.33
2019-02-02T07:25:18.657Z,50.00
2019-02-02T07:30:09.559Z,47.60
2019-02-02T07:35:00.461Z,55.50
2019-02-02T07:39:52.099Z,46.20
2019-02-02T07:44:43.757Z,43.47
2019-02-02T07:49:34.665Z,46.50
2019-02-02T07:54:25.568Z,45.63
2019-02-02T07:59:17.215Z,43.33
2019-02-02T08:04:08.865Z,47.40
2019-02-02T08:08:59.775Z,48.27
2019-02-02T08:13:50.740Z,44.57
2019-02-02T08:18:41.627Z,45.20
2019-02-02T08:23:32.594Z,54.72
2019-02-02T08:28:23.505Z,46.80
2019-02-02T08:33:14.414Z,43.37
2019-02-02T08:38:05.331Z,45.60
2019-02-02T08:42:56.258Z,44.13
2019-02-02T08:47:47.163Z,45.30
2019-02-02T08:52:38.151Z,45.00
2019-02-02T08:57:29.882Z,46.00
2019-02-02T09:02:20.724Z,41.30
2019-02-02T09:07:11.636Z,44.37
2019-02-02T09:12:02.552Z,53.47
2019-02-02T09:16:53.508Z,43.40
2019-02-02T09:21:44.388Z,43.80
2019-02-02T09:26:35.291Z,42.10
2019-02-02T09:31:26.948Z,44.30
2019-02-02T09:36:17.853Z,44.27
2019-02-02T09:41:09.495Z,42.00
2019-02-02T09:46:01.141Z,43.77
2019-02-02T09:50:52.047Z,43.70
2019-02-02T09:55:43.698Z,54.65
2019-02-02T10:00:34.603Z,51.05
2019-02-02T10:05:25.520Z,42.83
2019-02-02T10:10:19.008Z,42.00
2019-02-02T10:15:09.920Z,44.10
2019-02-02T10:20:00.890Z,41.57
2019-02-02T10:24:51.773Z,41.20
2019-02-02T10:29:42.681Z,42.13
2019-02-02T10:34:33.711Z,44.13
2019-02-02T10:39:24.507Z,41.67
2019-02-02T10:44:16.163Z,52.37
2019-02-02T10:49:07.072Z,50.08
2019-02-02T10:53:57.987Z,43.60
2019-02-02T10:58:48.883Z,42.77
2019-02-02T11:03:39.956Z,43.77
2019-02-02T11:08:31.099Z,44.20
2019-02-02T11:13:21.808Z,43.57
2019-02-02T11:18:12.699Z,44.17
2019-02-02T11:23:03.666Z,42.33
2019-02-02T11:27:54.823Z,41.17
2019-02-02T11:32:45.491Z,52.30
2019-02-02T11:37:37.351Z,45.93
2019-02-02T11:42:28.995Z,44.30
2019-02-02T11:47:19.891Z,43.07
2019-02-02T11:52:10.815Z,39.67
2019-02-02T11:57:01.730Z,41.50
2019-02-02T12:01:52.636Z,42.57
2019-02-02T12:06:43.550Z,40.20
2019-02-02T12:11:34.472Z,38.93
2019-02-02T12:16:25.385Z,42.90
2019-02-02T12:21:16.292Z,52.03
2019-02-02T12:26:07.205Z,45.95
2019-02-02T12:30:58.108Z,44.50
2019-02-02T12:35:49.020Z,43.30
2019-02-02T12:40:39.919Z,40.33
2019-02-02T12:45:32.516Z,40.83
2019-02-02T12:50:23.433Z,41.20
2019-02-02T12:55:14.344Z,42.87
2019-02-02T13:00:12.252Z,42.80
2019-02-02T13:05:03.165Z,42.20
2019-02-02T13:09:54.077Z,48.38
2019-02-02T13:14:44.995Z,44.60
2019-02-02T13:19:35.901Z,43.73
2019-02-02T13:24:26.839Z,44.43
2019-02-02T13:29:17.735Z,41.77
2019-02-02T13:34:08.640Z,42.60
2019-02-02T13:39:00.288Z,43.37
2019-02-02T13:43:51.183Z,41.87
2019-02-02T13:48:42.820Z,42.00
2019-02-02T13:53:34.464Z,42.63
2019-02-02T13:58:26.124Z,50.20
2019-02-02T14:03:17.136Z,40.13
2019-02-02T14:08:11.623Z,44.50
2019-02-02T14:13:03.368Z,40.37
2019-02-02T14:17:54.272Z,43.70
2019-02-02T14:22:45.932Z,45.30
2019-02-02T14:27:36.841Z,44.17
2019-02-02T14:32:27.760Z,43.57
2019-02-02T14:37:18.665Z,45.20
2019-02-02T14:42:10.317Z,44.97
2019-02-02T14:47:01.224Z,48.65
2019-02-02T14:51:52.913Z,46.80
2019-02-02T14:56:48.067Z,55.63
2019-02-02T15:01:34.764Z,50.33
2019-02-02T15:06:25.672Z,47.43
2019-02-02T15:11:17.415Z,45.20
2019-02-02T15:16:08.332Z,44.33
2019-02-02T15:20:59.237Z,45.57
2019-02-02T15:25:50.152Z,45.17
2019-02-02T15:30:41.377Z,44.50
2019-02-02T15:35:33.068Z,46.00
2019-02-02T15:40:23.963Z,46.60
2019-02-02T15:45:15.610Z,56.33
2019-02-02T15:50:07.248Z,46.80
2019-02-02T15:54:58.143Z,45.30
2019-02-02T15:59:49.044Z,47.73
2019-02-02T16:04:39.972Z,44.90
2019-02-02T16:09:30.888Z,43.20
2019-02-02T16:14:21.801Z,43.07
2019-02-02T16:19:12.703Z,46.23
2019-02-02T16:24:03.603Z,44.27
2019-02-02T16:28:54.508Z,54.53
2019-02-02T16:33:45.403Z,53.57
2019-02-02T16:38:37.048Z,46.47
2019-02-02T16:43:27.942Z,44.73
2019-02-02T16:48:19.596Z,43.10
2019-02-02T16:53:11.252Z,44.13
2019-02-02T16:58:02.153Z,41.63
2019-02-02T17:02:53.797Z,42.40
2019-02-02T17:07:46.437Z,43.97
2019-02-02T17:12:36.359Z,43.13
2019-02-02T17:17:27.268Z,55.60
2019-02-02T17:22:18.176Z,45.97
2019-02-02T17:27:09.841Z,45.60
2019-02-02T17:32:00.745Z,43.73
2019-02-02T17:36:51.651Z,44.17
2019-02-02T17:41:43.286Z,42.87
2019-02-02T17:46:34.928Z,44.47
2019-02-02T17:51:25.831Z,45.50
2019-02-02T17:56:17.488Z,43.00
2019-02-02T18:01:08.404Z,42.67
2019-02-02T18:05:59.312Z,46.53
2019-02-02T18:10:50.955Z,43.67
2019-02-02T18:15:41.871Z,51.30
2019-02-02T18:20:33.544Z,41.43
2019-02-02T18:25:24.437Z,41.67
2019-02-02T18:30:15.332Z,40.53
2019-02-02T18:35:07.036Z,40.20
2019-02-02T18:39:58.700Z,42.20
2019-02-02T18:44:50.351Z,40.23
2019-02-02T18:49:42.000Z,42.00
2019-02-02T18:54:32.907Z,42.33
2019-02-02T18:59:23.810Z,38.00
2019-02-02T19:04:15.452Z,41.17
2019-02-02T19:09:07.115Z,37.30
2019-02-02T19:13:58.028Z,38.87
2019-02-02T19:18:48.936Z,39.73
2019-02-02T19:23:39.843Z,35.60
2019-02-02T19:28:39.378Z,40.00
2019-02-02T19:33:22.405Z,38.43
2019-02-02T19:38:14.047Z,39.20
2019-02-02T19:43:04.939Z,38.07
2019-02-02T19:47:55.835Z,47.78
2019-02-02T19:52:46.741Z,44.53
2019-02-02T19:57:37.643Z,39.17
2019-02-02T20:02:28.556Z,39.80
2019-02-02T20:07:19.455Z,38.40
2019-02-02T20:12:10.391Z,37.80
2019-02-02T20:17:01.300Z,40.17
2019-02-02T20:21:52.201Z,41.43
2019-02-02T20:26:43.847Z,39.17
2019-02-02T20:31:34.753Z,42.03
2019-02-02T20:36:26.406Z,48.65
2019-02-02T20:41:17.317Z,42.63
2019-02-02T20:46:08.231Z,54.83
2019-02-02T20:50:59.885Z,42.70
2019-02-02T20:55:50.791Z,41.50
2019-02-02T21:00:41.704Z,42.63
2019-02-02T21:05:32.652Z,45.17
2019-02-02T21:10:23.570Z,42.90
2019-02-02T21:15:14.487Z,43.90
2019-02-02T21:20:05.415Z,46.23
2019-02-02T21:24:56.323Z,43.65
2019-02-02T21:29:47.251Z,40.10
2019-02-02T21:34:38.164Z,49.83
2019-02-02T21:39:29.088Z,43.07
2019-02-02T21:44:20.747Z,39.10
2019-02-02T21:49:12.400Z,40.10
2019-02-02T21:54:03.303Z,37.80
2019-02-02T21:58:54.961Z,36.20
2019-02-02T22:03:45.876Z,33.20
2019-02-02T22:08:37.515Z,30.53
2019-02-02T22:13:28.434Z,30.23
2019-02-02T22:18:21.722Z,35.00
2019-02-02T22:23:10.289Z,33.80
2019-02-02T22:28:01.191Z,27.23
2019-02-02T22:32:52.153Z,25.50
2019-02-02T22:37:43.076Z,25.50
2019-02-02T22:42:34.740Z,23.80
2019-02-02T22:47:26.457Z,22.17
2019-02-02T22:52:17.380Z,22.93
2019-02-02T22:57:16.136Z,24.00
2019-02-02T23:02:07.072Z,24.07
2019-02-02T23:06:58.931Z,24.53
2019-02-02T23:17:27.658Z,28.90
2019-02-02T23:22:18.567Z,22.83
2019-02-02T23:27:09.472Z,22.27
2019-02-02T23:32:00.389Z,23.20
2019-02-02T23:36:53.887Z,22.90
2019-02-02T23:41:43.017Z,24.37
2019-02-02T23:46:33.935Z,25.40
2019-02-02T23:51:24.843Z,24.30
2019-02-02T23:56:16.740Z,27.07
